sensor_id;sensor_type;location;lat;lon;timestamp;temperature;humidity
64209;DHT22;50527;52.414;13.226;2023-02-02T00:00:52;4.90;99.80
64209;DHT22;50527;52.414;13.226;2023-02-02T00:03:18;4.90;99.90
64209;DHT22;50527;52.414;13.226;2023-02-02T00:05:46;4.90;99.90
64209;DHT22;50527;52.414;13.226;2023-02-02T00:08:12;5.00;99.40
64209;DHT22;50527;52.414;13.226;2023-02-02T00:10:37;5.10;99.40
64209;DHT22;50527;52.414;13.226;2023-02-02T00:13:03;5.10;98.60
64209;DHT22;50527;52.414;13.226;2023-02-02T00:15:28;5.20;98.30
64209;DHT22;50527;52.414;13.226;2023-02-02T00:17:54;5.20;98.80
64209;DHT22;50527;52.414;13.226;2023-02-02T00:20:19;5.20;98.40
64209;DHT22;50527;52.414;13.226;2023-02-02T00:22:46;5.20;97.50
64209;DHT22;50527;52.414;13.226;2023-02-02T00:25:11;5.20;98.00
64209;DHT22;50527;52.414;13.226;2023-02-02T00:27:37;5.30;97.60
64209;DHT22;50527;52.414;13.226;2023-02-02T00:30:03;5.30;97.90
64209;DHT22;50527;52.414;13.226;2023-02-02T00:32:29;5.40;97.40
64209;DHT22;50527;52.414;13.226;2023-02-02T00:34:54;5.40;97.90
64209;DHT22;50527;52.414;13.226;2023-02-02T00:37:20;5.40;97.30
64209;DHT22;50527;52.414;13.226;2023-02-02T00:39:45;5.40;97.50
64209;DHT22;50527;52.414;13.226;2023-02-02T00:42:11;5.40;97.30
64209;DHT22;50527;52.414;13.226;2023-02-02T00:44:36;5.50;96.30
64209;DHT22;50527;52.414;13.226;2023-02-02T00:47:20;5.60;96.40
64209;DHT22;50527;52.414;13.226;2023-02-02T00:49:46;5.60;96.40
64209;DHT22;50527;52.414;13.226;2023-02-02T00:52:12;5.60;96.40
64209;DHT22;50527;52.414;13.226;2023-02-02T00:54:38;5.60;96.10
64209;DHT22;50527;52.414;13.226;2023-02-02T00:57:03;5.60;97.10
64209;DHT22;50527;52.414;13.226;2023-02-02T00:59:29;5.60;97.10
64209;DHT22;50527;52.414;13.226;2023-02-02T01:01:54;5.60;98.20
64209;DHT22;50527;52.414;13.226;2023-02-02T01:04:20;5.50;99.10
64209;DHT22;50527;52.414;13.226;2023-02-02T01:06:45;5.50;99.90
64209;DHT22;50527;52.414;13.226;2023-02-02T01:09:11;5.50;99.90
64209;DHT22;50527;52.414;13.226;2023-02-02T01:11:36;5.50;99.90
64209;DHT22;50527;52.414;13.226;2023-02-02T01:14:02;5.40;99.90
64209;DHT22;50527;52.414;13.226;2023-02-02T01:16:28;5.40;99.90
64209;DHT22;50527;52.414;13.226;2023-02-02T01:18:53;5.40;99.90
64209;DHT22;50527;52.414;13.226;2023-02-02T01:21:19;5.40;99.90
64209;DHT22;50527;52.414;13.226;2023-02-02T01:23:44;5.40;99.90
64209;DHT22;50527;52.414;13.226;2023-02-02T01:26:11;5.40;99.90
64209;DHT22;50527;52.414;13.226;2023-02-02T01:28:37;5.40;99.90
64209;DHT22;50527;52.414;13.226;2023-02-02T01:31:20;5.40;99.90
64209;DHT22;50527;52.414;13.226;2023-02-02T01:33:46;5.50;99.90
64209;DHT22;50527;52.414;13.226;2023-02-02T01:36:14;5.50;99.90
64209;DHT22;50527;52.414;13.226;2023-02-02T01:38:40;5.50;99.90
64209;DHT22;50527;52.414;13.226;2023-02-02T01:41:07;5.40;99.90
64209;DHT22;50527;52.414;13.226;2023-02-02T01:46:17;5.40;99.90
64209;DHT22;50527;52.414;13.226;2023-02-02T01:48:45;5.30;99.90
64209;DHT22;50527;52.414;13.226;2023-02-02T01:51:17;5.30;99.90
64209;DHT22;50527;52.414;13.226;2023-02-02T01:53:45;5.20;99.90
64209;DHT22;50527;52.414;13.226;2023-02-02T01:56:18;5.30;99.90
64209;DHT22;50527;52.414;13.226;2023-02-02T01:58:46;5.20;99.90
64209;DHT22;50527;52.414;13.226;2023-02-02T02:01:12;5.20;99.90
64209;DHT22;50527;52.414;13.226;2023-02-02T02:03:39;5.20;99.90
64209;DHT22;50527;52.414;13.226;2023-02-02T02:06:07;5.20;99.90
64209;DHT22;50527;52.414;13.226;2023-02-02T02:11:02;5.20;99.90
64209;DHT22;50527;52.414;13.226;2023-02-02T02:13:28;5.30;99.90
64209;DHT22;50527;52.414;13.226;2023-02-02T02:16:30;5.20;99.90
64209;DHT22;50527;52.414;13.226;2023-02-02T02:22:11;5.20;99.90
64209;DHT22;50527;52.414;13.226;2023-02-02T02:25:24;5.10;99.90
64209;DHT22;50527;52.414;13.226;2023-02-02T02:31:42;5.10;99.90
64209;DHT22;50527;52.414;13.226;2023-02-02T02:34:16;5.10;99.90
64209;DHT22;50527;52.414;13.226;2023-02-02T02:36:54;5.20;99.90
64209;DHT22;50527;52.414;13.226;2023-02-02T02:39:28;5.20;99.90
64209;DHT22;50527;52.414;13.226;2023-02-02T02:42:01;5.20;99.90
64209;DHT22;50527;52.414;13.226;2023-02-02T02:44:29;5.20;99.90
64209;DHT22;50527;52.414;13.226;2023-02-02T02:46:56;5.20;99.90
64209;DHT22;50527;52.414;13.226;2023-02-02T02:49:21;5.30;99.90
64209;DHT22;50527;52.414;13.226;2023-02-02T02:51:51;5.30;99.90
64209;DHT22;50527;52.414;13.226;2023-02-02T02:54:23;5.30;99.90
64209;DHT22;50527;52.414;13.226;2023-02-02T02:59:50;5.30;99.90
64209;DHT22;50527;52.414;13.226;2023-02-02T03:05:31;5.40;99.90
64209;DHT22;50527;52.414;13.226;2023-02-02T03:08:08;5.40;99.90
64209;DHT22;50527;52.414;13.226;2023-02-02T03:10:37;5.30;99.90
64209;DHT22;50527;52.414;13.226;2023-02-02T03:13:09;5.30;99.90
64209;DHT22;50527;52.414;13.226;2023-02-02T03:15:35;5.30;99.90
64209;DHT22;50527;52.414;13.226;2023-02-02T03:18:00;5.30;99.90
64209;DHT22;50527;52.414;13.226;2023-02-02T03:20:26;5.30;99.90
64209;DHT22;50527;52.414;13.226;2023-02-02T03:22:51;5.30;99.90
64209;DHT22;50527;52.414;13.226;2023-02-02T03:25:17;5.20;99.90
64209;DHT22;50527;52.414;13.226;2023-02-02T03:27:43;5.20;99.90
64209;DHT22;50527;52.414;13.226;2023-02-02T03:30:11;5.20;99.90
64209;DHT22;50527;52.414;13.226;2023-02-02T03:32:37;5.20;99.90
64209;DHT22;50527;52.414;13.226;2023-02-02T03:35:03;5.20;99.90
64209;DHT22;50527;52.414;13.226;2023-02-02T03:37:28;5.20;99.90
64209;DHT22;50527;52.414;13.226;2023-02-02T03:39:54;5.20;99.90
64209;DHT22;50527;52.414;13.226;2023-02-02T03:42:19;5.20;99.90
64209;DHT22;50527;52.414;13.226;2023-02-02T03:44:45;5.20;99.90
64209;DHT22;50527;52.414;13.226;2023-02-02T03:47:10;5.30;99.90
64209;DHT22;50527;52.414;13.226;2023-02-02T03:49:36;5.20;99.90
64209;DHT22;50527;52.414;13.226;2023-02-02T03:52:01;5.20;99.90
64209;DHT22;50527;52.414;13.226;2023-02-02T03:54:29;5.20;99.90
64209;DHT22;50527;52.414;13.226;2023-02-02T03:56:55;5.30;99.90
64209;DHT22;50527;52.414;13.226;2023-02-02T03:59:20;5.30;99.90
64209;DHT22;50527;52.414;13.226;2023-02-02T04:01:46;5.20;99.90
64209;DHT22;50527;52.414;13.226;2023-02-02T04:04:11;5.20;99.90
64209;DHT22;50527;52.414;13.226;2023-02-02T04:06:36;5.20;99.90
64209;DHT22;50527;52.414;13.226;2023-02-02T04:09:02;5.20;99.90
64209;DHT22;50527;52.414;13.226;2023-02-02T04:11:28;5.30;99.90
64209;DHT22;50527;52.414;13.226;2023-02-02T04:13:53;5.30;99.90
64209;DHT22;50527;52.414;13.226;2023-02-02T04:16:19;5.30;99.90
64209;DHT22;50527;52.414;13.226;2023-02-02T04:18:44;5.30;99.90
64209;DHT22;50527;52.414;13.226;2023-02-02T04:21:10;5.30;99.90
64209;DHT22;50527;52.414;13.226;2023-02-02T04:23:36;5.30;99.90
64209;DHT22;50527;52.414;13.226;2023-02-02T04:26:01;5.30;99.90
64209;DHT22;50527;52.414;13.226;2023-02-02T04:28:27;5.40;99.90
64209;DHT22;50527;52.414;13.226;2023-02-02T04:30:54;5.40;99.90
64209;DHT22;50527;52.414;13.226;2023-02-02T04:33:21;5.30;99.90
64209;DHT22;50527;52.414;13.226;2023-02-02T04:35:47;5.40;99.90
64209;DHT22;50527;52.414;13.226;2023-02-02T04:38:13;5.40;99.90
64209;DHT22;50527;52.414;13.226;2023-02-02T04:40:39;5.40;99.90
64209;DHT22;50527;52.414;13.226;2023-02-02T04:43:05;5.40;99.90
64209;DHT22;50527;52.414;13.226;2023-02-02T04:45:31;5.50;99.90
64209;DHT22;50527;52.414;13.226;2023-02-02T04:47:56;5.40;99.90
64209;DHT22;50527;52.414;13.226;2023-02-02T04:50:22;5.50;99.90
64209;DHT22;50527;52.414;13.226;2023-02-02T04:52:47;5.40;99.90
64209;DHT22;50527;52.414;13.226;2023-02-02T04:55:13;5.50;99.90
64209;DHT22;50527;52.414;13.226;2023-02-02T04:57:38;5.50;99.90
64209;DHT22;50527;52.414;13.226;2023-02-02T05:00:04;5.50;99.90
64209;DHT22;50527;52.414;13.226;2023-02-02T05:02:30;5.40;99.90
64209;DHT22;50527;52.414;13.226;2023-02-02T05:04:56;5.50;99.90
64209;DHT22;50527;52.414;13.226;2023-02-02T05:07:21;5.50;99.90
64209;DHT22;50527;52.414;13.226;2023-02-02T05:09:47;5.50;99.90
64209;DHT22;50527;52.414;13.226;2023-02-02T05:12:12;5.50;99.90
64209;DHT22;50527;52.414;13.226;2023-02-02T05:14:38;5.50;99.90
64209;DHT22;50527;52.414;13.226;2023-02-02T05:17:03;5.50;99.90
64209;DHT22;50527;52.414;13.226;2023-02-02T05:19:29;5.50;99.90
64209;DHT22;50527;52.414;13.226;2023-02-02T05:21:54;5.50;99.90
64209;DHT22;50527;52.414;13.226;2023-02-02T05:24:20;5.60;99.90
64209;DHT22;50527;52.414;13.226;2023-02-02T05:26:45;5.50;99.90
64209;DHT22;50527;52.414;13.226;2023-02-02T05:29:10;5.50;99.90
64209;DHT22;50527;52.414;13.226;2023-02-02T05:31:36;5.50;99.90
64209;DHT22;50527;52.414;13.226;2023-02-02T05:34:01;5.50;99.90
64209;DHT22;50527;52.414;13.226;2023-02-02T05:36:27;5.40;99.90
64209;DHT22;50527;52.414;13.226;2023-02-02T05:38:53;5.50;99.90
64209;DHT22;50527;52.414;13.226;2023-02-02T05:41:18;5.50;99.90
64209;DHT22;50527;52.414;13.226;2023-02-02T05:43:44;5.50;99.90
64209;DHT22;50527;52.414;13.226;2023-02-02T05:46:10;5.50;99.90
64209;DHT22;50527;52.414;13.226;2023-02-02T05:48:36;5.60;99.90
64209;DHT22;50527;52.414;13.226;2023-02-02T05:51:05;5.50;99.90
64209;DHT22;50527;52.414;13.226;2023-02-02T05:53:31;5.50;99.90
64209;DHT22;50527;52.414;13.226;2023-02-02T05:55:57;5.50;99.90
64209;DHT22;50527;52.414;13.226;2023-02-02T05:58:22;5.40;99.90
64209;DHT22;50527;52.414;13.226;2023-02-02T06:00:48;5.40;99.90
64209;DHT22;50527;52.414;13.226;2023-02-02T06:03:14;5.40;99.90
64209;DHT22;50527;52.414;13.226;2023-02-02T06:05:39;5.50;99.90
64209;DHT22;50527;52.414;13.226;2023-02-02T06:08:05;5.50;99.90
64209;DHT22;50527;52.414;13.226;2023-02-02T06:10:30;5.50;99.90
64209;DHT22;50527;52.414;13.226;2023-02-02T06:12:57;5.40;99.90
64209;DHT22;50527;52.414;13.226;2023-02-02T06:15:22;5.50;99.90
64209;DHT22;50527;52.414;13.226;2023-02-02T06:17:48;5.40;99.90
64209;DHT22;50527;52.414;13.226;2023-02-02T06:20:13;5.40;99.90
64209;DHT22;50527;52.414;13.226;2023-02-02T06:22:39;5.40;99.90
64209;DHT22;50527;52.414;13.226;2023-02-02T06:25:05;5.50;99.90
64209;DHT22;50527;52.414;13.226;2023-02-02T06:27:32;5.50;99.90
64209;DHT22;50527;52.414;13.226;2023-02-02T06:29:57;5.40;99.90
64209;DHT22;50527;52.414;13.226;2023-02-02T06:32:23;5.40;99.90
64209;DHT22;50527;52.414;13.226;2023-02-02T06:34:48;5.40;99.90
64209;DHT22;50527;52.414;13.226;2023-02-02T06:37:14;5.40;99.90
64209;DHT22;50527;52.414;13.226;2023-02-02T06:39:39;5.30;99.90
64209;DHT22;50527;52.414;13.226;2023-02-02T06:42:05;5.30;99.90
64209;DHT22;50527;52.414;13.226;2023-02-02T06:44:30;5.20;99.90
64209;DHT22;50527;52.414;13.226;2023-02-02T06:46:56;5.20;99.90
64209;DHT22;50527;52.414;13.226;2023-02-02T06:49:21;5.20;99.90
64209;DHT22;50527;52.414;13.226;2023-02-02T06:51:47;5.20;99.60
64209;DHT22;50527;52.414;13.226;2023-02-02T06:54:13;5.20;99.90
64209;DHT22;50527;52.414;13.226;2023-02-02T06:56:38;5.20;99.90
64209;DHT22;50527;52.414;13.226;2023-02-02T06:59:04;5.20;99.90
64209;DHT22;50527;52.414;13.226;2023-02-02T07:01:30;5.20;99.90
64209;DHT22;50527;52.414;13.226;2023-02-02T07:03:56;5.20;99.90
64209;DHT22;50527;52.414;13.226;2023-02-02T07:06:24;5.20;99.90
64209;DHT22;50527;52.414;13.226;2023-02-02T07:08:51;5.20;99.90
64209;DHT22;50527;52.414;13.226;2023-02-02T07:11:17;5.10;99.90
64209;DHT22;50527;52.414;13.226;2023-02-02T07:13:46;5.20;99.90
64209;DHT22;50527;52.414;13.226;2023-02-02T07:16:13;5.30;99.90
64209;DHT22;50527;52.414;13.226;2023-02-02T07:18:39;5.30;99.90
64209;DHT22;50527;52.414;13.226;2023-02-02T07:21:07;5.40;99.90
64209;DHT22;50527;52.414;13.226;2023-02-02T07:23:33;5.40;99.90
64209;DHT22;50527;52.414;13.226;2023-02-02T07:26:03;5.40;99.90
64209;DHT22;50527;52.414;13.226;2023-02-02T07:28:29;5.30;99.90
64209;DHT22;50527;52.414;13.226;2023-02-02T07:30:55;5.40;99.90
64209;DHT22;50527;52.414;13.226;2023-02-02T07:33:20;5.40;99.90
64209;DHT22;50527;52.414;13.226;2023-02-02T07:35:46;5.40;99.90
64209;DHT22;50527;52.414;13.226;2023-02-02T07:38:11;5.50;99.90
64209;DHT22;50527;52.414;13.226;2023-02-02T07:40:37;5.70;99.90
64209;DHT22;50527;52.414;13.226;2023-02-02T07:43:02;5.80;99.90
64209;DHT22;50527;52.414;13.226;2023-02-02T07:45:29;5.90;99.90
64209;DHT22;50527;52.414;13.226;2023-02-02T07:47:56;5.90;99.90
64209;DHT22;50527;52.414;13.226;2023-02-02T07:50:22;6.00;99.90
64209;DHT22;50527;52.414;13.226;2023-02-02T07:52:47;5.90;99.90
64209;DHT22;50527;52.414;13.226;2023-02-02T07:55:13;5.80;99.90
64209;DHT22;50527;52.414;13.226;2023-02-02T07:57:38;5.80;99.90
64209;DHT22;50527;52.414;13.226;2023-02-02T08:00:04;5.80;99.90
64209;DHT22;50527;52.414;13.226;2023-02-02T08:02:30;5.70;99.90
64209;DHT22;50527;52.414;13.226;2023-02-02T08:04:55;5.70;99.90
64209;DHT22;50527;52.414;13.226;2023-02-02T08:07:21;5.70;99.90
64209;DHT22;50527;52.414;13.226;2023-02-02T08:09:49;5.80;99.90
64209;DHT22;50527;52.414;13.226;2023-02-02T08:12:15;5.80;99.90
64209;DHT22;50527;52.414;13.226;2023-02-02T08:14:40;5.90;99.90
64209;DHT22;50527;52.414;13.226;2023-02-02T08:17:06;5.90;99.90
64209;DHT22;50527;52.414;13.226;2023-02-02T08:19:31;5.90;99.90
64209;DHT22;50527;52.414;13.226;2023-02-02T08:21:57;6.00;99.90
64209;DHT22;50527;52.414;13.226;2023-02-02T08:24:22;6.20;99.90
64209;DHT22;50527;52.414;13.226;2023-02-02T08:26:48;6.30;99.90
64209;DHT22;50527;52.414;13.226;2023-02-02T08:29:13;6.30;99.90
64209;DHT22;50527;52.414;13.226;2023-02-02T08:31:43;6.20;99.60
64209;DHT22;50527;52.414;13.226;2023-02-02T08:34:09;6.20;99.90
64209;DHT22;50527;52.414;13.226;2023-02-02T08:36:35;6.00;99.90
64209;DHT22;50527;52.414;13.226;2023-02-02T08:39:03;5.90;99.90
64209;DHT22;50527;52.414;13.226;2023-02-02T08:41:30;5.90;99.90
64209;DHT22;50527;52.414;13.226;2023-02-02T08:43:56;5.90;99.90
64209;DHT22;50527;52.414;13.226;2023-02-02T08:46:21;6.00;99.90
64209;DHT22;50527;52.414;13.226;2023-02-02T08:48:47;6.50;99.90
64209;DHT22;50527;52.414;13.226;2023-02-02T08:51:15;7.10;97.30
64209;DHT22;50527;52.414;13.226;2023-02-02T08:53:42;7.50;94.70
64209;DHT22;50527;52.414;13.226;2023-02-02T08:56:13;7.40;94.30
64209;DHT22;50527;52.414;13.226;2023-02-02T08:58:42;7.20;93.70
64209;DHT22;50527;52.414;13.226;2023-02-02T09:01:23;7.00;94.00
64209;DHT22;50527;52.414;13.226;2023-02-02T09:03:56;6.80;94.70
64209;DHT22;50527;52.414;13.226;2023-02-02T09:06:26;6.80;95.10
64209;DHT22;50527;52.414;13.226;2023-02-02T09:08:52;6.90;94.90
64209;DHT22;50527;52.414;13.226;2023-02-02T09:11:18;7.10;94.20
64209;DHT22;50527;52.414;13.226;2023-02-02T09:13:46;7.40;94.10
64209;DHT22;50527;52.414;13.226;2023-02-02T09:16:14;7.80;92.60
64209;DHT22;50527;52.414;13.226;2023-02-02T09:18:41;8.20;91.20
64209;DHT22;50527;52.414;13.226;2023-02-02T09:21:08;8.60;89.40
64209;DHT22;50527;52.414;13.226;2023-02-02T09:23:36;9.00;85.80
64209;DHT22;50527;52.414;13.226;2023-02-02T09:26:13;8.80;86.40
64209;DHT22;50527;52.414;13.226;2023-02-02T09:28:42;8.40;87.60
64209;DHT22;50527;52.414;13.226;2023-02-02T09:31:08;8.20;89.70
64209;DHT22;50527;52.414;13.226;2023-02-02T09:33:34;8.10;89.10
64209;DHT22;50527;52.414;13.226;2023-02-02T09:36:11;8.20;90.10
64209;DHT22;50527;52.414;13.226;2023-02-02T09:38:37;8.30;87.90
64209;DHT22;50527;52.414;13.226;2023-02-02T09:44:04;7.90;90.30
64209;DHT22;50527;52.414;13.226;2023-02-02T09:53:00;7.70;92.40
64209;DHT22;50527;52.414;13.226;2023-02-02T09:55:42;8.00;91.10
64209;DHT22;50527;52.414;13.226;2023-02-02T10:01:05;8.00;89.30
64209;DHT22;50527;52.414;13.226;2023-02-02T10:03:43;8.20;89.30
64209;DHT22;50527;52.414;13.226;2023-02-02T10:06:37;8.50;88.10
64209;DHT22;50527;52.414;13.226;2023-02-02T10:09:32;8.20;86.70
64209;DHT22;50527;52.414;13.226;2023-02-02T10:12:05;8.00;87.80
64209;DHT22;50527;52.414;13.226;2023-02-02T10:14:44;7.80;86.40
64209;DHT22;50527;52.414;13.226;2023-02-02T10:19:46;7.60;88.40
64209;DHT22;50527;52.414;13.226;2023-02-02T10:22:22;7.50;87.80
64209;DHT22;50527;52.414;13.226;2023-02-02T10:24:48;7.50;88.80
64209;DHT22;50527;52.414;13.226;2023-02-02T10:27:16;7.50;89.00
64209;DHT22;50527;52.414;13.226;2023-02-02T10:29:58;7.40;90.00
64209;DHT22;50527;52.414;13.226;2023-02-02T10:32:34;7.50;87.90
64209;DHT22;50527;52.414;13.226;2023-02-02T10:35:36;7.50;88.90
64209;DHT22;50527;52.414;13.226;2023-02-02T10:38:38;7.40;89.60
64209;DHT22;50527;52.414;13.226;2023-02-02T10:46:54;7.30;89.50
64209;DHT22;50527;52.414;13.226;2023-02-02T10:49:34;7.40;90.40
64209;DHT22;50527;52.414;13.226;2023-02-02T10:54:46;7.30;88.60
64209;DHT22;50527;52.414;13.226;2023-02-02T10:57:18;7.20;90.00
64209;DHT22;50527;52.414;13.226;2023-02-02T10:59:58;7.30;90.00
64209;DHT22;50527;52.414;13.226;2023-02-02T11:02:25;7.50;88.60
64209;DHT22;50527;52.414;13.226;2023-02-02T11:04:51;7.60;87.80
64209;DHT22;50527;52.414;13.226;2023-02-02T11:07:35;7.70;86.30
64209;DHT22;50527;52.414;13.226;2023-02-02T11:10:01;7.70;87.10
64209;DHT22;50527;52.414;13.226;2023-02-02T11:12:33;7.70;86.20
64209;DHT22;50527;52.414;13.226;2023-02-02T11:15:05;7.80;84.90
64209;DHT22;50527;52.414;13.226;2023-02-02T11:17:31;7.70;83.50
64209;DHT22;50527;52.414;13.226;2023-02-02T11:19:58;7.60;82.10
64209;DHT22;50527;52.414;13.226;2023-02-02T11:22:37;7.70;83.20
64209;DHT22;50527;52.414;13.226;2023-02-02T11:25:06;7.60;83.80
64209;DHT22;50527;52.414;13.226;2023-02-02T11:27:44;7.60;82.50
64209;DHT22;50527;52.414;13.226;2023-02-02T11:32:45;7.60;83.80
64209;DHT22;50527;52.414;13.226;2023-02-02T11:35:20;7.50;83.90
64209;DHT22;50527;52.414;13.226;2023-02-02T11:38:11;7.40;84.40
64209;DHT22;50527;52.414;13.226;2023-02-02T11:40:43;7.40;85.60
64209;DHT22;50527;52.414;13.226;2023-02-02T11:43:26;7.50;86.40
64209;DHT22;50527;52.414;13.226;2023-02-02T11:46:12;7.50;86.20
64209;DHT22;50527;52.414;13.226;2023-02-02T11:51:23;7.50;86.70
64209;DHT22;50527;52.414;13.226;2023-02-02T11:53:49;7.40;87.80
64209;DHT22;50527;52.414;13.226;2023-02-02T11:56:24;7.40;88.10
64209;DHT22;50527;52.414;13.226;2023-02-02T11:58:52;7.40;88.50
64209;DHT22;50527;52.414;13.226;2023-02-02T12:01:28;7.30;87.60
64209;DHT22;50527;52.414;13.226;2023-02-02T12:04:00;7.30;87.90
64209;DHT22;50527;52.414;13.226;2023-02-02T12:06:36;7.30;88.00
64209;DHT22;50527;52.414;13.226;2023-02-02T12:09:11;7.50;88.50
64209;DHT22;50527;52.414;13.226;2023-02-02T12:11:54;7.70;86.50
64209;DHT22;50527;52.414;13.226;2023-02-02T12:14:39;7.80;85.50
64209;DHT22;50527;52.414;13.226;2023-02-02T12:17:15;7.80;84.80
64209;DHT22;50527;52.414;13.226;2023-02-02T12:23:20;8.00;83.20
64209;DHT22;50527;52.414;13.226;2023-02-02T12:25:57;8.10;81.30
64209;DHT22;50527;52.414;13.226;2023-02-02T12:35:01;7.80;87.60
64209;DHT22;50527;52.414;13.226;2023-02-02T12:40:15;6.90;93.30
64209;DHT22;50527;52.414;13.226;2023-02-02T12:48:10;6.30;99.90
64209;DHT22;50527;52.414;13.226;2023-02-02T12:56:16;6.00;99.90
64209;DHT22;50527;52.414;13.226;2023-02-02T13:02:04;6.00;99.90
64209;DHT22;50527;52.414;13.226;2023-02-02T13:04:39;6.00;99.90
64209;DHT22;50527;52.414;13.226;2023-02-02T13:07:24;5.90;99.90
64209;DHT22;50527;52.414;13.226;2023-02-02T13:13:03;5.80;99.90
64209;DHT22;50527;52.414;13.226;2023-02-02T13:15:37;5.80;99.90
64209;DHT22;50527;52.414;13.226;2023-02-02T13:18:18;5.70;99.90
64209;DHT22;50527;52.414;13.226;2023-02-02T13:20:48;5.80;99.90
64209;DHT22;50527;52.414;13.226;2023-02-02T13:23:22;5.80;99.90
64209;DHT22;50527;52.414;13.226;2023-02-02T13:26:13;5.80;99.90
64209;DHT22;50527;52.414;13.226;2023-02-02T13:31:49;5.90;99.90
64209;DHT22;50527;52.414;13.226;2023-02-02T13:34:25;5.90;99.90
64209;DHT22;50527;52.414;13.226;2023-02-02T13:37:10;6.00;99.90
64209;DHT22;50527;52.414;13.226;2023-02-02T13:39:42;6.10;99.90
64209;DHT22;50527;52.414;13.226;2023-02-02T13:42:25;6.10;99.90
64209;DHT22;50527;52.414;13.226;2023-02-02T13:45:02;6.10;99.90
64209;DHT22;50527;52.414;13.226;2023-02-02T13:47:46;6.20;99.90
64209;DHT22;50527;52.414;13.226;2023-02-02T13:50:16;6.20;99.90
64209;DHT22;50527;52.414;13.226;2023-02-02T13:55:42;6.20;99.90
64209;DHT22;50527;52.414;13.226;2023-02-02T13:58:23;6.10;97.90
64209;DHT22;50527;52.414;13.226;2023-02-02T14:00:52;6.10;98.70
64209;DHT22;50527;52.414;13.226;2023-02-02T14:03:34;6.00;98.50
64209;DHT22;50527;52.414;13.226;2023-02-02T14:06:21;6.10;99.00
64209;DHT22;50527;52.414;13.226;2023-02-02T14:08:56;6.00;97.00
64209;DHT22;50527;52.414;13.226;2023-02-02T14:11:34;6.00;96.70
64209;DHT22;50527;52.414;13.226;2023-02-02T14:14:16;6.00;96.10
64209;DHT22;50527;52.414;13.226;2023-02-02T14:24:39;6.00;94.00
64209;DHT22;50527;52.414;13.226;2023-02-02T14:34:51;5.90;91.90
64209;DHT22;50527;52.414;13.226;2023-02-02T14:45:35;5.70;91.20
64209;DHT22;50527;52.414;13.226;2023-02-02T14:48:10;5.70;91.30
64209;DHT22;50527;52.414;13.226;2023-02-02T14:50:43;5.60;90.60
64209;DHT22;50527;52.414;13.226;2023-02-02T14:53:18;5.60;90.80
64209;DHT22;50527;52.414;13.226;2023-02-02T14:56:04;5.60;92.40
64209;DHT22;50527;52.414;13.226;2023-02-02T14:58:52;5.60;93.00
64209;DHT22;50527;52.414;13.226;2023-02-02T15:06:47;5.50;93.40
64209;DHT22;50527;52.414;13.226;2023-02-02T15:14:48;5.50;94.20
64209;DHT22;50527;52.414;13.226;2023-02-02T15:19:49;5.40;93.60
64209;DHT22;50527;52.414;13.226;2023-02-02T15:22:36;5.40;91.60
64209;DHT22;50527;52.414;13.226;2023-02-02T15:25:19;5.30;91.90
64209;DHT22;50527;52.414;13.226;2023-02-02T15:27:51;5.30;90.30
64209;DHT22;50527;52.414;13.226;2023-02-02T15:30:17;5.40;91.20
64209;DHT22;50527;52.414;13.226;2023-02-02T15:32:44;5.30;91.20
64209;DHT22;50527;52.414;13.226;2023-02-02T15:35:18;5.20;88.40
64209;DHT22;50527;52.414;13.226;2023-02-02T15:37:48;5.20;89.80
64209;DHT22;50527;52.414;13.226;2023-02-02T15:40:20;5.20;90.90
64209;DHT22;50527;52.414;13.226;2023-02-02T15:42:54;5.10;90.60
64209;DHT22;50527;52.414;13.226;2023-02-02T15:47:54;5.00;88.60
64209;DHT22;50527;52.414;13.226;2023-02-02T15:50:20;5.00;85.50
64209;DHT22;50527;52.414;13.226;2023-02-02T15:52:48;5.00;87.70
64209;DHT22;50527;52.414;13.226;2023-02-02T15:57:47;4.90;87.30
64209;DHT22;50527;52.414;13.226;2023-02-02T16:00:28;4.80;88.80
64209;DHT22;50527;52.414;13.226;2023-02-02T16:08:05;4.80;84.90
64209;DHT22;50527;52.414;13.226;2023-02-02T16:10:32;4.80;89.00
64209;DHT22;50527;52.414;13.226;2023-02-02T16:12:58;4.70;90.20
64209;DHT22;50527;52.414;13.226;2023-02-02T16:15:27;4.70;87.50
64209;DHT22;50527;52.414;13.226;2023-02-02T16:17:58;4.60;90.30
64209;DHT22;50527;52.414;13.226;2023-02-02T16:20:25;4.60;90.50
64209;DHT22;50527;52.414;13.226;2023-02-02T16:22:53;4.60;88.90
64209;DHT22;50527;52.414;13.226;2023-02-02T16:25:21;4.50;88.80
64209;DHT22;50527;52.414;13.226;2023-02-02T16:27:47;4.50;90.00
64209;DHT22;50527;52.414;13.226;2023-02-02T16:30:37;4.50;90.00
64209;DHT22;50527;52.414;13.226;2023-02-02T16:33:29;4.50;91.30
64209;DHT22;50527;52.414;13.226;2023-02-02T16:35:55;4.40;91.90
64209;DHT22;50527;52.414;13.226;2023-02-02T16:38:31;4.40;91.90
64209;DHT22;50527;52.414;13.226;2023-02-02T16:43:28;4.30;92.20
64209;DHT22;50527;52.414;13.226;2023-02-02T16:45:56;4.20;92.80
64209;DHT22;50527;52.414;13.226;2023-02-02T16:51:10;4.10;93.50
64209;DHT22;50527;52.414;13.226;2023-02-02T16:53:42;4.00;93.30
64209;DHT22;50527;52.414;13.226;2023-02-02T16:56:23;3.90;93.10
64209;DHT22;50527;52.414;13.226;2023-02-02T16:58:50;3.90;94.30
64209;DHT22;50527;52.414;13.226;2023-02-02T17:01:29;3.80;94.80
64209;DHT22;50527;52.414;13.226;2023-02-02T17:03:56;3.70;94.50
64209;DHT22;50527;52.414;13.226;2023-02-02T17:06:28;3.70;94.70
64209;DHT22;50527;52.414;13.226;2023-02-02T17:08:54;3.70;94.60
64209;DHT22;50527;52.414;13.226;2023-02-02T17:11:25;3.60;94.90
64209;DHT22;50527;52.414;13.226;2023-02-02T17:13:52;3.60;94.50
64209;DHT22;50527;52.414;13.226;2023-02-02T17:16:22;3.60;94.50
64209;DHT22;50527;52.414;13.226;2023-02-02T17:18:49;3.50;95.10
64209;DHT22;50527;52.414;13.226;2023-02-02T17:21:24;3.50;95.30
64209;DHT22;50527;52.414;13.226;2023-02-02T17:23:50;3.40;95.50
64209;DHT22;50527;52.414;13.226;2023-02-02T17:26:18;3.30;94.80
64209;DHT22;50527;52.414;13.226;2023-02-02T17:28:44;3.20;94.80
64209;DHT22;50527;52.414;13.226;2023-02-02T17:31:14;3.10;95.00
64209;DHT22;50527;52.414;13.226;2023-02-02T17:33:40;3.10;96.50
64209;DHT22;50527;52.414;13.226;2023-02-02T17:36:08;3.00;96.50
64209;DHT22;50527;52.414;13.226;2023-02-02T17:38:34;2.90;96.20
64209;DHT22;50527;52.414;13.226;2023-02-02T17:41:01;2.90;95.80
64209;DHT22;50527;52.414;13.226;2023-02-02T17:43:28;2.80;96.40
64209;DHT22;50527;52.414;13.226;2023-02-02T17:45:54;2.80;97.00
64209;DHT22;50527;52.414;13.226;2023-02-02T17:48:19;2.80;97.10
64209;DHT22;50527;52.414;13.226;2023-02-02T17:50:45;2.80;97.30
64209;DHT22;50527;52.414;13.226;2023-02-02T17:53:14;2.80;97.60
64209;DHT22;50527;52.414;13.226;2023-02-02T17:55:42;2.70;97.30
64209;DHT22;50527;52.414;13.226;2023-02-02T17:58:09;2.70;97.50
64209;DHT22;50527;52.414;13.226;2023-02-02T18:00:37;2.80;97.80